sensor_id;sensor_type;location;lat;lon;timestamp;pressure;altitude;pressure_sealevel;temperature;humidity
10115;BME280;5097;43.260;27.812;2023-03-23T00:00:58;100157.19;;;9.51;92.89
10115;BME280;5097;43.260;27.812;2023-03-23T00:03:42;100232.16;;;10.01;92.64
10115;BME280;5097;43.260;27.812;2023-03-23T00:06:27;100231.56;;;10.14;92.53
10115;BME280;5097;43.260;27.812;2023-03-23T00:09:16;100228.59;;;10.02;92.54
10115;BME280;5097;43.260;27.812;2023-03-23T00:12:05;100230.72;;;10.13;92.49
10115;BME280;5097;43.260;27.812;2023-03-23T00:14:48;100151.09;;;9.68;92.01
10115;BME280;5097;43.260;27.812;2023-03-23T00:17:35;100216.25;;;10.03;91.52
10115;BME280;5097;43.260;27.812;2023-03-23T00:20:18;100222.53;;;10.00;92.39
10115;BME280;5097;43.260;27.812;2023-03-23T00:23:06;100220.22;;;9.94;91.64
10115;BME280;5097;43.260;27.812;2023-03-23T00:25:53;100221.28;;;9.90;91.80
10115;BME280;5097;43.260;27.812;2023-03-23T00:28:38;100224.25;;;10.01;91.31
10115;BME280;5097;43.260;27.812;2023-03-23T00:31:23;100222.69;;;9.97;91.41
10115;BME280;5097;43.260;27.812;2023-03-23T00:34:06;100222.69;;;9.97;90.06
10115;BME280;5097;43.260;27.812;2023-03-23T00:36:50;100212.75;;;9.85;90.77
10115;BME280;5097;43.260;27.812;2023-03-23T00:39:35;100212.28;;;9.94;91.58
10115;BME280;5097;43.260;27.812;2023-03-23T00:42:20;100208.09;;;9.90;91.03
10115;BME280;5097;43.260;27.812;2023-03-23T00:45:04;100164.75;;;9.59;90.68
10115;BME280;5097;43.260;27.812;2023-03-23T00:47:51;100215.97;;;9.72;90.40
10115;BME280;5097;43.260;27.812;2023-03-23T00:50:35;100165.47;;;9.44;90.84
10115;BME280;5097;43.260;27.812;2023-03-23T00:53:19;100174.03;;;9.49;90.71
10115;BME280;5097;43.260;27.812;2023-03-23T00:56:02;100179.94;;;9.54;90.82
10115;BME280;5097;43.260;27.812;2023-03-23T00:58:47;100166.91;;;9.32;91.18
10115;BME280;5097;43.260;27.812;2023-03-23T01:01:30;100164.34;;;9.30;91.74
10115;BME280;5097;43.260;27.812;2023-03-23T01:04:13;100205.06;;;9.61;91.82
10115;BME280;5097;43.260;27.812;2023-03-23T01:06:56;100154.09;;;9.24;91.73
10115;BME280;5097;43.260;27.812;2023-03-23T01:09:42;100206.16;;;9.57;92.55
10115;BME280;5097;43.260;27.812;2023-03-23T01:12:27;100178.97;;;9.55;92.48
10115;BME280;5097;43.260;27.812;2023-03-23T01:15:15;100163.63;;;9.46;93.22
10115;BME280;5097;43.260;27.812;2023-03-23T01:17:58;100198.00;;;9.81;93.17
10115;BME280;5097;43.260;27.812;2023-03-23T01:20:41;100164.13;;;9.54;93.41
10115;BME280;5097;43.260;27.812;2023-03-23T01:23:24;100162.03;;;9.61;93.04
10115;BME280;5097;43.260;27.812;2023-03-23T01:26:09;100166.16;;;9.66;93.18
10115;BME280;5097;43.260;27.812;2023-03-23T01:28:53;100205.75;;;9.84;92.76
10115;BME280;5097;43.260;27.812;2023-03-23T01:31:37;100164.75;;;9.59;92.70
10115;BME280;5097;43.260;27.812;2023-03-23T01:34:22;100163.88;;;9.59;91.66
10115;BME280;5097;43.260;27.812;2023-03-23T01:37:05;100209.53;;;9.78;92.01
10115;BME280;5097;43.260;27.812;2023-03-23T01:39:49;100165.78;;;9.55;91.40
10115;BME280;5097;43.260;27.812;2023-03-23T01:42:34;100194.09;;;9.70;91.87
10115;BME280;5097;43.260;27.812;2023-03-23T01:45:27;100160.91;;;9.47;92.23
10115;BME280;5097;43.260;27.812;2023-03-23T01:48:17;100206.03;;;9.78;92.84
10115;BME280;5097;43.260;27.812;2023-03-23T01:51:04;100199.91;;;9.77;92.21
10115;BME280;5097;43.260;27.812;2023-03-23T01:53:53;100197.19;;;9.79;91.84
10115;BME280;5097;43.260;27.812;2023-03-23T01:56:41;100201.75;;;9.75;91.94
10115;BME280;5097;43.260;27.812;2023-03-23T01:59:30;100204.03;;;9.83;91.63
10115;BME280;5097;43.260;27.812;2023-03-23T02:02:29;100197.97;;;9.63;90.74
10115;BME280;5097;43.260;27.812;2023-03-23T02:05:20;100204.34;;;9.77;90.50
10115;BME280;5097;43.260;27.812;2023-03-23T02:08:07;100201.63;;;9.78;90.99
10115;BME280;5097;43.260;27.812;2023-03-23T02:10:51;100194.34;;;9.83;91.12
10115;BME280;5097;43.260;27.812;2023-03-23T02:13:34;100210.09;;;9.85;91.55
10115;BME280;5097;43.260;27.812;2023-03-23T02:16:24;100199.19;;;9.73;89.54
10115;BME280;5097;43.260;27.812;2023-03-23T02:19:30;100206.22;;;9.55;89.14
10115;BME280;5097;43.260;27.812;2023-03-23T02:22:36;100212.00;;;9.64;89.48
10115;BME280;5097;43.260;27.812;2023-03-23T02:25:49;100211.63;;;9.71;89.40
10115;BME280;5097;43.260;27.812;2023-03-23T02:29:04;100203.72;;;9.71;90.08
10115;BME280;5097;43.260;27.812;2023-03-23T02:32:04;100222.88;;;9.75;90.14
10115;BME280;5097;43.260;27.812;2023-03-23T02:34:53;100178.84;;;9.58;89.90
10115;BME280;5097;43.260;27.812;2023-03-23T02:37:45;100219.66;;;9.68;89.32
10115;BME280;5097;43.260;27.812;2023-03-23T02:40:33;100187.06;;;9.33;89.11
10115;BME280;5097;43.260;27.812;2023-03-23T02:43:21;100212.06;;;9.62;90.30
10115;BME280;5097;43.260;27.812;2023-03-23T02:46:08;100213.16;;;9.58;89.54
10115;BME280;5097;43.260;27.812;2023-03-23T02:48:54;100182.47;;;9.19;89.70
10115;BME280;5097;43.260;27.812;2023-03-23T02:51:40;100175.53;;;8.97;89.66
10115;BME280;5097;43.260;27.812;2023-03-23T02:54:26;100180.59;;;8.83;89.82
10115;BME280;5097;43.260;27.812;2023-03-23T02:57:11;100197.50;;;8.77;90.37
10115;BME280;5097;43.260;27.812;2023-03-23T02:59:57;100197.25;;;9.02;89.84
10115;BME280;5097;43.260;27.812;2023-03-23T03:02:43;100194.81;;;8.79;89.00
10115;BME280;5097;43.260;27.812;2023-03-23T03:05:35;100190.38;;;8.60;90.41
10115;BME280;5097;43.260;27.812;2023-03-23T03:08:26;100194.38;;;8.88;90.84
10115;BME280;5097;43.260;27.812;2023-03-23T03:11:13;100218.53;;;8.58;91.27
10115;BME280;5097;43.260;27.812;2023-03-23T03:13:59;100230.19;;;8.30;92.36
10115;BME280;5097;43.260;27.812;2023-03-23T03:16:52;100236.88;;;8.17;93.03
10115;BME280;5097;43.260;27.812;2023-03-23T03:19:38;100226.25;;;8.20;93.87
10115;BME280;5097;43.260;27.812;2023-03-23T03:22:25;100224.53;;;7.98;94.56
10115;BME280;5097;43.260;27.812;2023-03-23T03:25:14;100239.78;;;8.11;94.93
10115;BME280;5097;43.260;27.812;2023-03-23T03:27:59;100242.13;;;8.18;94.29
10115;BME280;5097;43.260;27.812;2023-03-23T03:31:02;100234.38;;;8.36;95.01
10115;BME280;5097;43.260;27.812;2023-03-23T03:33:48;100236.50;;;8.26;94.09
10115;BME280;5097;43.260;27.812;2023-03-23T03:36:34;100230.50;;;8.02;95.46
10115;BME280;5097;43.260;27.812;2023-03-23T03:39:20;100248.84;;;8.03;95.03
10115;BME280;5097;43.260;27.812;2023-03-23T03:42:05;100227.31;;;8.16;95.10
10115;BME280;5097;43.260;27.812;2023-03-23T03:44:48;100229.41;;;8.28;93.97
10115;BME280;5097;43.260;27.812;2023-03-23T03:47:32;100220.34;;;8.35;93.54
10115;BME280;5097;43.260;27.812;2023-03-23T03:50:15;100243.72;;;8.64;94.00
10115;BME280;5097;43.260;27.812;2023-03-23T03:52:59;100205.69;;;8.71;93.62
10115;BME280;5097;43.260;27.812;2023-03-23T03:55:42;100209.97;;;8.74;92.91
10115;BME280;5097;43.260;27.812;2023-03-23T03:58:32;100250.53;;;9.09;92.70
10115;BME280;5097;43.260;27.812;2023-03-23T04:01:37;100258.25;;;9.14;92.46
10115;BME280;5097;43.260;27.812;2023-03-23T04:04:20;100249.53;;;9.12;91.61
10115;BME280;5097;43.260;27.812;2023-03-23T04:07:04;100212.69;;;8.91;91.10
10115;BME280;5097;43.260;27.812;2023-03-23T04:09:47;100207.66;;;9.05;90.83
10115;BME280;5097;43.260;27.812;2023-03-23T04:12:34;100210.94;;;9.11;90.68
10115;BME280;5097;43.260;27.812;2023-03-23T04:15:37;100261.66;;;9.16;90.20
10115;BME280;5097;43.260;27.812;2023-03-23T04:18:22;100253.38;;;9.04;90.21
10115;BME280;5097;43.260;27.812;2023-03-23T04:21:06;100215.06;;;8.58;89.41
10115;BME280;5097;43.260;27.812;2023-03-23T04:23:49;100248.78;;;8.89;89.35
10115;BME280;5097;43.260;27.812;2023-03-23T04:26:32;100221.31;;;8.55;90.18
10115;BME280;5097;43.260;27.812;2023-03-23T04:29:24;100264.78;;;9.05;89.27
10115;BME280;5097;43.260;27.812;2023-03-23T04:32:39;100224.50;;;8.82;89.08
10115;BME280;5097;43.260;27.812;2023-03-23T04:35:24;100260.78;;;8.96;89.43
10115;BME280;5097;43.260;27.812;2023-03-23T04:38:27;100265.16;;;9.16;88.17
10115;BME280;5097;43.260;27.812;2023-03-23T04:41:18;100269.56;;;9.16;88.52
10115;BME280;5097;43.260;27.812;2023-03-23T04:44:21;100231.81;;;8.96;88.81
10115;BME280;5097;43.260;27.812;2023-03-23T04:47:16;100260.38;;;9.05;89.48
10115;BME280;5097;43.260;27.812;2023-03-23T04:50:11;100243.03;;;8.60;89.14
10115;BME280;5097;43.260;27.812;2023-03-23T04:52:55;100271.19;;;8.99;89.24
10115;BME280;5097;43.260;27.812;2023-03-23T04:55:40;100272.09;;;9.19;88.94
10115;BME280;5097;43.260;27.812;2023-03-23T04:58:27;100276.69;;;8.93;89.76
10115;BME280;5097;43.260;27.812;2023-03-23T05:01:36;100265.50;;;9.28;89.42
10115;BME280;5097;43.260;27.812;2023-03-23T05:04:35;100275.94;;;9.50;88.42
10115;BME280;5097;43.260;27.812;2023-03-23T05:07:26;100246.53;;;9.00;87.92
10115;BME280;5097;43.260;27.812;2023-03-23T05:10:12;100273.94;;;9.55;88.32
10115;BME280;5097;43.260;27.812;2023-03-23T05:12:55;100248.13;;;9.43;87.04
10115;BME280;5097;43.260;27.812;2023-03-23T05:15:39;100294.31;;;9.70;86.55
10115;BME280;5097;43.260;27.812;2023-03-23T05:18:23;100298.19;;;9.04;88.34
10115;BME280;5097;43.260;27.812;2023-03-23T05:21:07;100265.22;;;9.15;86.92
10115;BME280;5097;43.260;27.812;2023-03-23T05:23:55;100269.97;;;9.06;88.01
10115;BME280;5097;43.260;27.812;2023-03-23T05:26:43;100302.31;;;9.69;86.77
10115;BME280;5097;43.260;27.812;2023-03-23T05:29:36;100298.44;;;9.76;86.08
10115;BME280;5097;43.260;27.812;2023-03-23T05:32:22;100304.16;;;9.67;84.73
10115;BME280;5097;43.260;27.812;2023-03-23T05:35:18;100276.47;;;9.18;85.71
10115;BME280;5097;43.260;27.812;2023-03-23T05:38:05;100315.31;;;8.94;86.79
10115;BME280;5097;43.260;27.812;2023-03-23T05:40:50;100279.75;;;8.63;88.65
10115;BME280;5097;43.260;27.812;2023-03-23T05:43:40;100314.84;;;9.26;87.51
10115;BME280;5097;43.260;27.812;2023-03-23T05:46:31;100318.84;;;9.53;86.70
10115;BME280;5097;43.260;27.812;2023-03-23T05:49:16;100320.69;;;9.89;86.14
10115;BME280;5097;43.260;27.812;2023-03-23T05:52:01;100291.63;;;9.13;84.94
10115;BME280;5097;43.260;27.812;2023-03-23T05:54:44;100331.69;;;9.61;85.88
10115;BME280;5097;43.260;27.812;2023-03-23T05:57:30;100291.47;;;9.56;84.89
10115;BME280;5097;43.260;27.812;2023-03-23T06:00:18;100282.53;;;9.78;85.00
10115;BME280;5097;43.260;27.812;2023-03-23T06:03:09;100334.50;;;10.33;84.39
10115;BME280;5097;43.260;27.812;2023-03-23T06:06:03;100301.09;;;10.32;83.27
10115;BME280;5097;43.260;27.812;2023-03-23T06:09:02;100332.69;;;9.97;82.61
10115;BME280;5097;43.260;27.812;2023-03-23T06:11:57;100329.41;;;9.72;83.64
10115;BME280;5097;43.260;27.812;2023-03-23T06:14:53;100324.31;;;9.87;83.51
10115;BME280;5097;43.260;27.812;2023-03-23T06:17:44;100338.91;;;10.32;83.12
10115;BME280;5097;43.260;27.812;2023-03-23T06:20:29;100267.06;;;9.89;82.35
10115;BME280;5097;43.260;27.812;2023-03-23T06:23:15;100300.59;;;9.68;83.39
10115;BME280;5097;43.260;27.812;2023-03-23T06:26:00;100341.22;;;10.02;84.40
10115;BME280;5097;43.260;27.812;2023-03-23T06:28:45;100351.66;;;9.86;83.41
10115;BME280;5097;43.260;27.812;2023-03-23T06:31:33;100346.34;;;9.48;84.21
10115;BME280;5097;43.260;27.812;2023-03-23T06:34:17;100356.63;;;9.54;84.56
10115;BME280;5097;43.260;27.812;2023-03-23T06:37:20;100356.63;;;9.54;84.76
10115;BME280;5097;43.260;27.812;2023-03-23T06:40:13;100361.34;;;9.66;83.06
10115;BME280;5097;43.260;27.812;2023-03-23T06:43:05;100360.34;;;9.88;83.63
10115;BME280;5097;43.260;27.812;2023-03-23T06:45:48;100335.31;;;10.16;82.69
10115;BME280;5097;43.260;27.812;2023-03-23T06:48:42;100353.19;;;10.28;82.04
10115;BME280;5097;43.260;27.812;2023-03-23T06:51:30;100323.78;;;9.61;83.02
10115;BME280;5097;43.260;27.812;2023-03-23T06:54:14;100322.88;;;10.18;82.35
10115;BME280;5097;43.260;27.812;2023-03-23T06:56:59;100328.34;;;10.32;80.74
10115;BME280;5097;43.260;27.812;2023-03-23T06:59:42;100368.44;;;10.77;80.17
10115;BME280;5097;43.260;27.812;2023-03-23T07:02:25;100331.28;;;10.63;80.40
10115;BME280;5097;43.260;27.812;2023-03-23T07:05:11;100371.78;;;10.81;81.46
10115;BME280;5097;43.260;27.812;2023-03-23T07:07:55;100333.22;;;10.77;81.22
10115;BME280;5097;43.260;27.812;2023-03-23T07:10:46;100343.50;;;10.83;80.08
10115;BME280;5097;43.260;27.812;2023-03-23T07:13:29;100342.03;;;10.40;78.18
10115;BME280;5097;43.260;27.812;2023-03-23T07:16:15;100338.66;;;10.38;79.23
10115;BME280;5097;43.260;27.812;2023-03-23T07:18:58;100343.75;;;10.42;80.56
10115;BME280;5097;43.260;27.812;2023-03-23T07:21:43;100360.59;;;10.93;79.46
10115;BME280;5097;43.260;27.812;2023-03-23T07:24:28;100352.88;;;10.53;78.58
10115;BME280;5097;43.260;27.812;2023-03-23T07:27:20;100344.22;;;10.13;80.07
10115;BME280;5097;43.260;27.812;2023-03-23T07:30:08;100383.75;;;10.88;80.93
10115;BME280;5097;43.260;27.812;2023-03-23T07:32:51;100363.78;;;11.17;79.20
10115;BME280;5097;43.260;27.812;2023-03-23T07:35:36;100386.66;;;11.34;76.75
10115;BME280;5097;43.260;27.812;2023-03-23T07:38:24;100381.06;;;11.40;77.25
10115;BME280;5097;43.260;27.812;2023-03-23T07:41:09;100371.03;;;11.47;78.83
10115;BME280;5097;43.260;27.812;2023-03-23T07:43:56;100348.09;;;11.30;76.70
10115;BME280;5097;43.260;27.812;2023-03-23T07:46:46;100348.31;;;10.57;80.25
10115;BME280;5097;43.260;27.812;2023-03-23T07:49:31;100354.59;;;10.54;78.42
10115;BME280;5097;43.260;27.812;2023-03-23T07:52:27;100342.47;;;10.31;81.06
10115;BME280;5097;43.260;27.812;2023-03-23T07:55:13;100344.56;;;10.05;81.95
10115;BME280;5097;43.260;27.812;2023-03-23T07:58:36;100313.50;;;9.93;81.75
10115;BME280;5097;43.260;27.812;2023-03-23T08:01:19;100346.81;;;10.32;81.86
10115;BME280;5097;43.260;27.812;2023-03-23T08:04:31;100394.88;;;10.40;81.13
10115;BME280;5097;43.260;27.812;2023-03-23T08:07:36;100354.81;;;10.50;80.62
10115;BME280;5097;43.260;27.812;2023-03-23T08:10:30;100360.72;;;10.55;80.27
10115;BME280;5097;43.260;27.812;2023-03-23T08:13:33;100376.28;;;10.79;79.03
10115;BME280;5097;43.260;27.812;2023-03-23T08:16:42;100364.91;;;11.12;77.19
10115;BME280;5097;43.260;27.812;2023-03-23T08:19:45;100365.09;;;11.09;78.25
10115;BME280;5097;43.260;27.812;2023-03-23T08:22:34;100402.72;;;11.31;76.52
10115;BME280;5097;43.260;27.812;2023-03-23T08:25:45;100412.19;;;10.83;80.05
10115;BME280;5097;43.260;27.812;2023-03-23T08:28:28;100374.28;;;10.84;77.72
10115;BME280;5097;43.260;27.812;2023-03-23T08:31:38;100407.38;;;10.91;78.62
10115;BME280;5097;43.260;27.812;2023-03-23T08:34:57;100397.88;;;12.38;75.99
10115;BME280;5097;43.260;27.812;2023-03-23T08:37:41;100367.41;;;11.32;74.83
10115;BME280;5097;43.260;27.812;2023-03-23T08:40:49;100366.56;;;11.48;75.54
10115;BME280;5097;43.260;27.812;2023-03-23T08:43:53;100368.28;;;11.49;76.23
10115;BME280;5097;43.260;27.812;2023-03-23T08:47:11;100358.72;;;11.46;76.13
10115;BME280;5097;43.260;27.812;2023-03-23T08:50:20;100398.00;;;11.54;74.79
10115;BME280;5097;43.260;27.812;2023-03-23T08:53:21;100412.13;;;12.04;75.17
10115;BME280;5097;43.260;27.812;2023-03-23T08:56:26;100413.75;;;11.39;75.03
10115;BME280;5097;43.260;27.812;2023-03-23T08:59:21;100412.19;;;10.83;77.53
10115;BME280;5097;43.260;27.812;2023-03-23T09:02:23;100408.63;;;10.66;78.77
10115;BME280;5097;43.260;27.812;2023-03-23T09:05:11;100405.53;;;11.11;78.42
10115;BME280;5097;43.260;27.812;2023-03-23T09:08:14;100405.53;;;10.76;79.08
10115;BME280;5097;43.260;27.812;2023-03-23T09:10:58;100408.47;;;11.22;77.85
10115;BME280;5097;43.260;27.812;2023-03-23T09:13:43;100377.47;;;10.90;77.91
10115;BME280;5097;43.260;27.812;2023-03-23T09:16:26;100366.34;;;11.19;77.45
10115;BME280;5097;43.260;27.812;2023-03-23T09:19:09;100407.50;;;11.58;76.52
10115;BME280;5097;43.260;27.812;2023-03-23T09:21:53;100402.41;;;12.04;74.51
10115;BME280;5097;43.260;27.812;2023-03-23T09:24:36;100363.66;;;11.36;75.24
10115;BME280;5097;43.260;27.812;2023-03-23T09:27:20;100396.38;;;11.85;75.79
10115;BME280;5097;43.260;27.812;2023-03-23T09:30:06;100357.66;;;11.66;73.67
10115;BME280;5097;43.260;27.812;2023-03-23T09:32:49;100405.63;;;11.60;73.88
10115;BME280;5097;43.260;27.812;2023-03-23T09:35:32;100367.63;;;11.28;74.81
10115;BME280;5097;43.260;27.812;2023-03-23T09:38:17;100401.88;;;11.64;73.82
10115;BME280;5097;43.260;27.812;2023-03-23T09:41:06;100367.72;;;11.60;74.99
10115;BME280;5097;43.260;27.812;2023-03-23T09:44:00;100406.16;;;12.00;73.88
10115;BME280;5097;43.260;27.812;2023-03-23T09:46:55;100397.88;;;12.06;73.63
10115;BME280;5097;43.260;27.812;2023-03-23T09:49:43;100406.59;;;12.09;73.11
10115;BME280;5097;43.260;27.812;2023-03-23T09:52:39;100400.19;;;12.45;72.43
10115;BME280;5097;43.260;27.812;2023-03-23T09:55:24;100364.22;;;12.40;72.98
10115;BME280;5097;43.260;27.812;2023-03-23T09:58:11;100408.56;;;13.14;70.80
10115;BME280;5097;43.260;27.812;2023-03-23T10:01:00;100399.88;;;13.71;69.42
10115;BME280;5097;43.260;27.812;2023-03-23T10:03:46;100399.94;;;13.40;66.84
10115;BME280;5097;43.260;27.812;2023-03-23T10:06:30;100365.31;;;12.83;69.56
10115;BME280;5097;43.260;27.812;2023-03-23T10:09:15;100395.59;;;13.83;65.55
10115;BME280;5097;43.260;27.812;2023-03-23T10:12:05;100395.47;;;13.55;66.46
10115;BME280;5097;43.260;27.812;2023-03-23T10:15:09;100385.28;;;13.19;67.45
10115;BME280;5097;43.260;27.812;2023-03-23T10:18:00;100381.38;;;13.84;66.18
10115;BME280;5097;43.260;27.812;2023-03-23T10:20:50;100386.50;;;13.87;65.85
10115;BME280;5097;43.260;27.812;2023-03-23T10:23:51;100338.34;;;13.50;65.68
10115;BME280;5097;43.260;27.812;2023-03-23T10:26:41;100369.59;;;13.30;65.87
10115;BME280;5097;43.260;27.812;2023-03-23T10:29:29;100348.38;;;13.30;65.57
10115;BME280;5097;43.260;27.812;2023-03-23T10:32:16;100348.00;;;14.49;62.57
10115;BME280;5097;43.260;27.812;2023-03-23T10:35:03;100380.72;;;14.22;63.32
10115;BME280;5097;43.260;27.812;2023-03-23T10:37:53;100345.69;;;13.16;65.92
10115;BME280;5097;43.260;27.812;2023-03-23T10:40:47;100391.97;;;13.98;63.10
10115;BME280;5097;43.260;27.812;2023-03-23T10:43:32;100383.56;;;13.77;64.10
10115;BME280;5097;43.260;27.812;2023-03-23T10:46:31;100381.00;;;14.59;62.24
10115;BME280;5097;43.260;27.812;2023-03-23T10:49:21;100381.59;;;13.66;63.51
10115;BME280;5097;43.260;27.812;2023-03-23T10:52:24;100344.97;;;12.83;65.64
10115;BME280;5097;43.260;27.812;2023-03-23T10:55:12;100364.47;;;12.82;67.56
10115;BME280;5097;43.260;27.812;2023-03-23T10:58:00;100345.03;;;13.27;67.87
10115;BME280;5097;43.260;27.812;2023-03-23T11:00:45;100363.53;;;13.86;64.74
10115;BME280;5097;43.260;27.812;2023-03-23T11:03:38;100335.88;;;13.02;66.10
10115;BME280;5097;43.260;27.812;2023-03-23T11:06:23;100368.19;;;13.08;66.58
10115;BME280;5097;43.260;27.812;2023-03-23T11:09:11;100327.59;;;12.78;67.80
10115;BME280;5097;43.260;27.812;2023-03-23T11:11:56;100323.75;;;12.53;69.16
10115;BME280;5097;43.260;27.812;2023-03-23T11:14:39;100359.91;;;12.54;69.49
10115;BME280;5097;43.260;27.812;2023-03-23T11:17:26;100355.63;;;12.67;68.66
10115;BME280;5097;43.260;27.812;2023-03-23T11:20:11;100316.00;;;12.64;68.83
10115;BME280;5097;43.260;27.812;2023-03-23T11:22:55;100296.75;;;12.91;67.99
10115;BME280;5097;43.260;27.812;2023-03-23T11:25:57;100350.25;;;13.86;65.34
10115;BME280;5097;43.260;27.812;2023-03-23T11:28:46;100316.94;;;13.38;65.86
10115;BME280;5097;43.260;27.812;2023-03-23T11:31:32;100285.03;;;12.81;67.94
10115;BME280;5097;43.260;27.812;2023-03-23T11:34:19;100352.34;;;12.93;68.59
10115;BME280;5097;43.260;27.812;2023-03-23T11:37:06;100353.03;;;12.96;68.74
10115;BME280;5097;43.260;27.812;2023-03-23T11:39:54;100350.78;;;13.04;68.34
10115;BME280;5097;43.260;27.812;2023-03-23T11:42:43;100346.88;;;13.40;69.09
10115;BME280;5097;43.260;27.812;2023-03-23T11:45:35;100349.41;;;13.56;67.94
10115;BME280;5097;43.260;27.812;2023-03-23T11:48:23;100306.31;;;13.53;67.28
10115;BME280;5097;43.260;27.812;2023-03-23T11:51:12;100340.09;;;13.20;67.53
10115;BME280;5097;43.260;27.812;2023-03-23T11:54:01;100348.50;;;12.98;68.95
10115;BME280;5097;43.260;27.812;2023-03-23T11:56:47;100306.72;;;13.02;68.53
10115;BME280;5097;43.260;27.812;2023-03-23T11:59:32;100302.88;;;13.07;69.16
10115;BME280;5097;43.260;27.812;2023-03-23T12:02:35;100299.56;;;12.73;70.02
10115;BME280;5097;43.260;27.812;2023-03-23T12:05:41;100342.03;;;12.88;70.67
10115;BME280;5097;43.260;27.812;2023-03-23T12:08:37;100338.28;;;12.46;71.21
10115;BME280;5097;43.260;27.812;2023-03-23T12:11:30;100296.31;;;12.07;72.32
10115;BME280;5097;43.260;27.812;2023-03-23T12:14:18;100311.41;;;12.21;72.61
10115;BME280;5097;43.260;27.812;2023-03-23T12:17:16;100248.66;;;12.07;71.56
10115;BME280;5097;43.260;27.812;2023-03-23T12:20:11;100294.91;;;12.32;71.87
10115;BME280;5097;43.260;27.812;2023-03-23T12:23:05;100321.63;;;12.44;72.30
10115;BME280;5097;43.260;27.812;2023-03-23T12:26:14;100325.72;;;12.80;71.68
10115;BME280;5097;43.260;27.812;2023-03-23T12:29:17;100320.88;;;13.17;70.37
10115;BME280;5097;43.260;27.812;2023-03-23T12:32:24;100318.75;;;13.94;69.31
10115;BME280;5097;43.260;27.812;2023-03-23T12:35:22;100252.22;;;13.83;67.00
10115;BME280;5097;43.260;27.812;2023-03-23T12:41:31;100311.16;;;15.60;62.42
10115;BME280;5097;43.260;27.812;2023-03-23T12:44:23;100286.31;;;15.09;65.15
10115;BME280;5097;43.260;27.812;2023-03-23T12:47:21;100288.50;;;15.41;66.27
10115;BME280;5097;43.260;27.812;2023-03-23T12:50:12;100306.50;;;15.51;63.95
10115;BME280;5097;43.260;27.812;2023-03-23T12:53:04;100308.81;;;15.68;63.67
10115;BME280;5097;43.260;27.812;2023-03-23T12:55:52;100251.91;;;15.82;61.99
10115;BME280;5097;43.260;27.812;2023-03-23T12:58:40;100281.88;;;16.46;61.10
10115;BME280;5097;43.260;27.812;2023-03-23T13:01:26;100313.63;;;16.13;63.20
10115;BME280;5097;43.260;27.812;2023-03-23T13:04:13;100242.97;;;15.83;62.17
10115;BME280;5097;43.260;27.812;2023-03-23T13:06:58;100273.75;;;15.74;62.08
10115;BME280;5097;43.260;27.812;2023-03-23T13:09:50;100260.72;;;15.46;63.91
10115;BME280;5097;43.260;27.812;2023-03-23T13:12:35;100236.84;;;14.94;65.35
10115;BME280;5097;43.260;27.812;2023-03-23T13:15:29;100244.78;;;15.20;64.48
10115;BME280;5097;43.260;27.812;2023-03-23T13:18:29;100263.81;;;15.76;63.35
10115;BME280;5097;43.260;27.812;2023-03-23T13:21:20;100208.59;;;15.17;62.85
10115;BME280;5097;43.260;27.812;2023-03-23T13:24:09;100258.56;;;15.64;62.24
10115;BME280;5097;43.260;27.812;2023-03-23T13:26:55;100295.00;;;16.00;62.63
10115;BME280;5097;43.260;27.812;2023-03-23T13:29:44;100268.75;;;15.83;63.29
10115;BME280;5097;43.260;27.812;2023-03-23T13:32:32;100259.63;;;15.61;64.08
10115;BME280;5097;43.260;27.812;2023-03-23T13:35:18;100298.34;;;15.91;62.75
10115;BME280;5097;43.260;27.812;2023-03-23T13:38:12;100297.63;;;16.13;62.33
10115;BME280;5097;43.260;27.812;2023-03-23T13:40:57;100297.03;;;15.47;62.17
10115;BME280;5097;43.260;27.812;2023-03-23T13:43:43;100261.78;;;15.43;64.28
10115;BME280;5097;43.260;27.812;2023-03-23T13:46:28;100264.25;;;15.46;64.56
10115;BME280;5097;43.260;27.812;2023-03-23T13:49:18;100272.69;;;15.14;64.12
10115;BME280;5097;43.260;27.812;2023-03-23T13:52:16;100271.63;;;15.04;64.71
10115;BME280;5097;43.260;27.812;2023-03-23T13:55:29;100292.16;;;15.15;65.02
10115;BME280;5097;43.260;27.812;2023-03-23T13:58:22;100264.50;;;14.38;66.25
10115;BME280;5097;43.260;27.812;2023-03-23T14:01:16;100295.09;;;14.31;66.98
10115;BME280;5097;43.260;27.812;2023-03-23T14:04:00;100277.31;;;14.19;68.09
10115;BME280;5097;43.260;27.812;2023-03-23T14:06:46;100223.91;;;13.96;68.05
10115;BME280;5097;43.260;27.812;2023-03-23T14:09:38;100291.19;;;14.10;68.87
10115;BME280;5097;43.260;27.812;2023-03-23T14:12:26;100248.88;;;13.52;69.93
10115;BME280;5097;43.260;27.812;2023-03-23T14:15:12;100296.94;;;13.89;71.06
10115;BME280;5097;43.260;27.812;2023-03-23T14:18:01;100258.84;;;13.75;70.25
10115;BME280;5097;43.260;27.812;2023-03-23T14:20:46;100294.41;;;14.15;69.01
10115;BME280;5097;43.260;27.812;2023-03-23T14:23:31;100260.66;;;14.02;68.76
10115;BME280;5097;43.260;27.812;2023-03-23T14:26:17;100295.34;;;14.14;69.30
10115;BME280;5097;43.260;27.812;2023-03-23T14:29:00;100286.78;;;13.96;69.60
10115;BME280;5097;43.260;27.812;2023-03-23T14:31:44;100291.56;;;13.76;69.86
10115;BME280;5097;43.260;27.812;2023-03-23T14:34:30;100291.31;;;13.66;72.17
10115;BME280;5097;43.260;27.812;2023-03-23T14:37:15;100259.50;;;13.37;72.60
10115;BME280;5097;43.260;27.812;2023-03-23T14:39:59;100260.28;;;13.39;71.65
10115;BME280;5097;43.260;27.812;2023-03-23T14:42:44;100305.63;;;13.64;71.48
10115;BME280;5097;43.260;27.812;2023-03-23T14:45:27;100277.19;;;13.66;71.32
10115;BME280;5097;43.260;27.812;2023-03-23T14:48:13;100301.44;;;13.74;71.38
10115;BME280;5097;43.260;27.812;2023-03-23T14:51:00;100263.63;;;13.13;72.35
10115;BME280;5097;43.260;27.812;2023-03-23T14:53:46;100284.97;;;13.54;72.54
10115;BME280;5097;43.260;27.812;2023-03-23T14:56:35;100273.19;;;13.73;72.23